Rechercher aéroport 
image banner adimage banner adimage banner ad
image banner ad

CL89 - Mga Chatsworth

Situé à Chatsworth, United States

ICAO - CL89, IATA -

Données fournies par Airmate  

Information générale

Coordonnées: N34°14'20" W118°34'10"
Élévation : 859 feet MSL.
Variation magnétique : 14° East
Voir autres Aéroports à California

Données opérationnelles

Special qualification required
Heure actuelle UTC:
Heure actuelle locale:
Météo à : KVNY - Van Nuys ( 8 km )
METAR: KVNY 191151Z AUTO 35003KT 10SM CLR 11/06 A2998 RMK AO2 SLP148 70001 T01060056 10139 20100 58002
TAF: KVNY 191135Z 1912/2012 VRB03KT P6SM SKC FM192200 15007KT P6SM SKC FM200400 VRB03KT P6SM SCT250
Voir NOTAMs / SUP AIP / TFR affectant cet aéroport [VIEW]
Fréquences de communication: [VIEW]

Pistes:

Coordonnées de l'aéroport

Adresse: Chatsworth United States

Vue satellite de CL89